sensor_id;sensor_type;location;lat;lon;timestamp;P1;durP1;ratioP1;P2;durP2;ratioP2
66966;SDS011;53900;51.468;-2.586;2023-05-07T00:00:50;15.48;;;6.57;;
66966;SDS011;53900;51.468;-2.586;2023-05-07T00:03:16;18.50;;;7.07;;
66966;SDS011;53900;51.468;-2.586;2023-05-07T00:05:41;16.83;;;6.60;;
66966;SDS011;53900;51.468;-2.586;2023-05-07T00:08:07;18.27;;;6.70;;
66966;SDS011;53900;51.468;-2.586;2023-05-07T00:10:32;17.77;;;6.82;;
66966;SDS011;53900;51.468;-2.586;2023-05-07T00:12:57;20.10;;;6.60;;
66966;SDS011;53900;51.468;-2.586;2023-05-07T00:15:23;18.75;;;6.90;;
66966;SDS011;53900;51.468;-2.586;2023-05-07T00:17:48;14.27;;;6.70;;
66966;SDS011;53900;51.468;-2.586;2023-05-07T00:20:13;16.05;;;6.95;;
66966;SDS011;53900;51.468;-2.586;2023-05-07T00:22:38;16.13;;;6.55;;
66966;SDS011;53900;51.468;-2.586;2023-05-07T00:25:04;21.30;;;7.63;;
66966;SDS011;53900;51.468;-2.586;2023-05-07T00:27:29;19.23;;;7.97;;
66966;SDS011;53900;51.468;-2.586;2023-05-07T00:29:54;18.83;;;7.05;;
66966;SDS011;53900;51.468;-2.586;2023-05-07T00:32:20;18.10;;;7.45;;
66966;SDS011;53900;51.468;-2.586;2023-05-07T00:34:45;18.38;;;7.25;;
66966;SDS011;53900;51.468;-2.586;2023-05-07T00:37:10;27.98;;;8.88;;
66966;SDS011;53900;51.468;-2.586;2023-05-07T00:39:36;18.70;;;7.70;;
66966;SDS011;53900;51.468;-2.586;2023-05-07T00:42:02;17.33;;;7.07;;
66966;SDS011;53900;51.468;-2.586;2023-05-07T00:44:27;26.48;;;7.93;;
66966;SDS011;53900;51.468;-2.586;2023-05-07T00:46:53;16.95;;;7.43;;
66966;SDS011;53900;51.468;-2.586;2023-05-07T00:49:19;21.90;;;8.02;;
66966;SDS011;53900;51.468;-2.586;2023-05-07T00:51:44;20.55;;;8.35;;
66966;SDS011;53900;51.468;-2.586;2023-05-07T00:54:10;20.55;;;8.73;;
66966;SDS011;53900;51.468;-2.586;2023-05-07T00:56:36;18.23;;;7.95;;
66966;SDS011;53900;51.468;-2.586;2023-05-07T00:59:01;19.63;;;7.90;;
66966;SDS011;53900;51.468;-2.586;2023-05-07T01:01:27;16.50;;;7.60;;
66966;SDS011;53900;51.468;-2.586;2023-05-07T01:03:52;14.20;;;7.60;;
66966;SDS011;53900;51.468;-2.586;2023-05-07T01:06:17;21.98;;;8.27;;
66966;SDS011;53900;51.468;-2.586;2023-05-07T01:08:43;16.60;;;8.25;;
66966;SDS011;53900;51.468;-2.586;2023-05-07T01:11:09;21.08;;;9.38;;
66966;SDS011;53900;51.468;-2.586;2023-05-07T01:13:35;21.15;;;8.98;;
66966;SDS011;53900;51.468;-2.586;2023-05-07T01:16:02;21.15;;;9.15;;
66966;SDS011;53900;51.468;-2.586;2023-05-07T01:18:27;22.52;;;9.32;;
66966;SDS011;53900;51.468;-2.586;2023-05-07T01:20:55;27.08;;;9.32;;
66966;SDS011;53900;51.468;-2.586;2023-05-07T01:23:22;21.73;;;9.05;;
66966;SDS011;53900;51.468;-2.586;2023-05-07T01:25:51;25.00;;;9.10;;
66966;SDS011;53900;51.468;-2.586;2023-05-07T01:28:17;16.80;;;8.20;;
66966;SDS011;53900;51.468;-2.586;2023-05-07T01:30:42;21.13;;;8.63;;
66966;SDS011;53900;51.468;-2.586;2023-05-07T01:33:11;18.20;;;8.30;;
66966;SDS011;53900;51.468;-2.586;2023-05-07T01:35:40;19.65;;;8.35;;
66966;SDS011;53900;51.468;-2.586;2023-05-07T01:38:06;16.45;;;8.18;;
66966;SDS011;53900;51.468;-2.586;2023-05-07T01:40:31;15.75;;;8.38;;
66966;SDS011;53900;51.468;-2.586;2023-05-07T01:42:57;14.07;;;8.20;;
66966;SDS011;53900;51.468;-2.586;2023-05-07T01:45:22;16.33;;;8.00;;
66966;SDS011;53900;51.468;-2.586;2023-05-07T01:47:48;19.92;;;8.32;;
66966;SDS011;53900;51.468;-2.586;2023-05-07T01:50:14;19.60;;;8.45;;
66966;SDS011;53900;51.468;-2.586;2023-05-07T01:52:40;17.48;;;8.13;;
66966;SDS011;53900;51.468;-2.586;2023-05-07T01:55:06;17.73;;;9.00;;
66966;SDS011;53900;51.468;-2.586;2023-05-07T01:57:31;18.80;;;8.27;;
66966;SDS011;53900;51.468;-2.586;2023-05-07T01:59:57;25.23;;;9.13;;
66966;SDS011;53900;51.468;-2.586;2023-05-07T02:02:22;16.08;;;8.55;;
66966;SDS011;53900;51.468;-2.586;2023-05-07T02:04:47;23.83;;;8.60;;
66966;SDS011;53900;51.468;-2.586;2023-05-07T02:07:12;18.55;;;8.25;;
66966;SDS011;53900;51.468;-2.586;2023-05-07T02:09:38;22.10;;;8.60;;
66966;SDS011;53900;51.468;-2.586;2023-05-07T02:12:03;17.33;;;8.50;;
66966;SDS011;53900;51.468;-2.586;2023-05-07T02:14:28;14.02;;;8.30;;
66966;SDS011;53900;51.468;-2.586;2023-05-07T02:16:54;22.15;;;8.60;;
66966;SDS011;53900;51.468;-2.586;2023-05-07T02:19:19;14.93;;;7.40;;
66966;SDS011;53900;51.468;-2.586;2023-05-07T02:21:46;17.15;;;8.35;;
66966;SDS011;53900;51.468;-2.586;2023-05-07T02:24:11;14.95;;;8.15;;
66966;SDS011;53900;51.468;-2.586;2023-05-07T02:26:36;15.77;;;7.47;;
66966;SDS011;53900;51.468;-2.586;2023-05-07T02:29:01;17.52;;;7.45;;
66966;SDS011;53900;51.468;-2.586;2023-05-07T02:31:27;12.88;;;7.20;;
66966;SDS011;53900;51.468;-2.586;2023-05-07T02:33:52;20.60;;;8.10;;
66966;SDS011;53900;51.468;-2.586;2023-05-07T02:36:17;16.45;;;7.18;;
66966;SDS011;53900;51.468;-2.586;2023-05-07T02:38:42;15.40;;;8.13;;
66966;SDS011;53900;51.468;-2.586;2023-05-07T02:41:08;14.07;;;7.22;;
66966;SDS011;53900;51.468;-2.586;2023-05-07T02:43:33;17.52;;;7.32;;
66966;SDS011;53900;51.468;-2.586;2023-05-07T02:46:02;20.90;;;9.40;;
66966;SDS011;53900;51.468;-2.586;2023-05-07T02:48:27;19.15;;;7.68;;
66966;SDS011;53900;51.468;-2.586;2023-05-07T02:50:53;16.92;;;7.38;;
66966;SDS011;53900;51.468;-2.586;2023-05-07T02:53:18;16.17;;;7.45;;
66966;SDS011;53900;51.468;-2.586;2023-05-07T02:55:43;21.92;;;8.82;;
66966;SDS011;53900;51.468;-2.586;2023-05-07T02:58:09;14.52;;;7.47;;
66966;SDS011;53900;51.468;-2.586;2023-05-07T03:00:34;14.77;;;8.43;;
66966;SDS011;53900;51.468;-2.586;2023-05-07T03:02:59;18.25;;;8.57;;
66966;SDS011;53900;51.468;-2.586;2023-05-07T03:05:25;16.15;;;8.98;;
66966;SDS011;53900;51.468;-2.586;2023-05-07T03:07:50;18.60;;;9.13;;
66966;SDS011;53900;51.468;-2.586;2023-05-07T03:10:15;20.42;;;10.32;;
66966;SDS011;53900;51.468;-2.586;2023-05-07T03:12:40;18.52;;;10.40;;
66966;SDS011;53900;51.468;-2.586;2023-05-07T03:15:06;18.98;;;10.25;;
66966;SDS011;53900;51.468;-2.586;2023-05-07T03:17:31;19.75;;;11.13;;
66966;SDS011;53900;51.468;-2.586;2023-05-07T03:19:56;24.40;;;12.18;;
66966;SDS011;53900;51.468;-2.586;2023-05-07T03:22:22;19.73;;;9.70;;
66966;SDS011;53900;51.468;-2.586;2023-05-07T03:24:47;18.20;;;10.05;;
66966;SDS011;53900;51.468;-2.586;2023-05-07T03:27:12;19.83;;;10.30;;
66966;SDS011;53900;51.468;-2.586;2023-05-07T03:29:37;18.58;;;10.02;;
66966;SDS011;53900;51.468;-2.586;2023-05-07T03:32:03;18.10;;;10.23;;
66966;SDS011;53900;51.468;-2.586;2023-05-07T03:34:29;16.67;;;9.32;;
66966;SDS011;53900;51.468;-2.586;2023-05-07T08:04:48;11.60;;;3.58;;
66966;SDS011;53900;51.468;-2.586;2023-05-07T08:07:13;8.23;;;3.60;;
66966;SDS011;53900;51.468;-2.586;2023-05-07T08:09:39;8.43;;;3.40;;
66966;SDS011;53900;51.468;-2.586;2023-05-07T08:12:05;7.50;;;3.22;;
66966;SDS011;53900;51.468;-2.586;2023-05-07T08:14:30;9.00;;;3.17;;
66966;SDS011;53900;51.468;-2.586;2023-05-07T08:16:55;8.75;;;2.83;;
66966;SDS011;53900;51.468;-2.586;2023-05-07T08:19:21;6.90;;;2.28;;
66966;SDS011;53900;51.468;-2.586;2023-05-07T08:21:46;8.85;;;2.67;;
66966;SDS011;53900;51.468;-2.586;2023-05-07T08:24:15;8.13;;;2.30;;
66966;SDS011;53900;51.468;-2.586;2023-05-07T08:26:41;7.00;;;1.95;;
66966;SDS011;53900;51.468;-2.586;2023-05-07T08:29:06;6.63;;;1.92;;
66966;SDS011;53900;51.468;-2.586;2023-05-07T08:31:31;7.10;;;2.10;;
66966;SDS011;53900;51.468;-2.586;2023-05-07T08:33:57;5.03;;;1.60;;
66966;SDS011;53900;51.468;-2.586;2023-05-07T08:36:22;6.28;;;1.90;;
66966;SDS011;53900;51.468;-2.586;2023-05-07T08:38:47;10.32;;;1.98;;
66966;SDS011;53900;51.468;-2.586;2023-05-07T08:41:12;8.00;;;2.05;;
66966;SDS011;53900;51.468;-2.586;2023-05-07T08:43:38;8.38;;;2.00;;
66966;SDS011;53900;51.468;-2.586;2023-05-07T08:46:05;11.20;;;1.63;;
66966;SDS011;53900;51.468;-2.586;2023-05-07T08:48:31;6.03;;;1.90;;
66966;SDS011;53900;51.468;-2.586;2023-05-07T08:50:57;7.85;;;3.47;;
66966;SDS011;53900;51.468;-2.586;2023-05-07T08:53:23;3.75;;;1.40;;
66966;SDS011;53900;51.468;-2.586;2023-05-07T08:55:48;6.07;;;1.88;;
66966;SDS011;53900;51.468;-2.586;2023-05-07T08:58:13;5.07;;;1.60;;
66966;SDS011;53900;51.468;-2.586;2023-05-07T09:00:39;5.55;;;1.65;;
66966;SDS011;53900;51.468;-2.586;2023-05-07T09:03:05;12.18;;;2.20;;
66966;SDS011;53900;51.468;-2.586;2023-05-07T09:05:30;9.75;;;1.83;;
66966;SDS011;53900;51.468;-2.586;2023-05-07T09:07:58;5.60;;;1.60;;
66966;SDS011;53900;51.468;-2.586;2023-05-07T09:10:23;6.75;;;1.60;;
66966;SDS011;53900;51.468;-2.586;2023-05-07T09:12:49;6.47;;;2.00;;
66966;SDS011;53900;51.468;-2.586;2023-05-07T09:15:15;7.22;;;1.98;;
66966;SDS011;53900;51.468;-2.586;2023-05-07T09:17:41;4.75;;;1.42;;
66966;SDS011;53900;51.468;-2.586;2023-05-07T09:20:07;4.30;;;1.70;;
66966;SDS011;53900;51.468;-2.586;2023-05-07T09:22:33;8.00;;;2.40;;
66966;SDS011;53900;51.468;-2.586;2023-05-07T09:24:58;6.93;;;1.65;;
66966;SDS011;53900;51.468;-2.586;2023-05-07T09:27:24;6.82;;;1.88;;
66966;SDS011;53900;51.468;-2.586;2023-05-07T09:29:50;6.63;;;1.90;;
66966;SDS011;53900;51.468;-2.586;2023-05-07T09:32:15;5.85;;;1.60;;
66966;SDS011;53900;51.468;-2.586;2023-05-07T09:34:41;7.65;;;1.98;;
66966;SDS011;53900;51.468;-2.586;2023-05-07T09:37:06;6.78;;;2.10;;
66966;SDS011;53900;51.468;-2.586;2023-05-07T09:39:38;7.70;;;2.42;;
66966;SDS011;53900;51.468;-2.586;2023-05-07T09:42:04;8.18;;;2.60;;
66966;SDS011;53900;51.468;-2.586;2023-05-07T09:44:31;7.82;;;2.70;;
66966;SDS011;53900;51.468;-2.586;2023-05-07T09:46:56;8.43;;;2.80;;
66966;SDS011;53900;51.468;-2.586;2023-05-07T09:49:24;10.18;;;3.00;;
66966;SDS011;53900;51.468;-2.586;2023-05-07T09:51:52;6.50;;;2.67;;
66966;SDS011;53900;51.468;-2.586;2023-05-07T09:54:17;7.95;;;2.60;;
66966;SDS011;53900;51.468;-2.586;2023-05-07T09:56:44;4.97;;;2.63;;
66966;SDS011;53900;51.468;-2.586;2023-05-07T09:59:13;7.97;;;2.95;;
66966;SDS011;53900;51.468;-2.586;2023-05-07T10:01:38;11.02;;;3.40;;
66966;SDS011;53900;51.468;-2.586;2023-05-07T10:04:05;9.30;;;3.50;;
66966;SDS011;53900;51.468;-2.586;2023-05-07T10:06:33;9.25;;;3.67;;
66966;SDS011;53900;51.468;-2.586;2023-05-07T10:08:59;9.20;;;3.13;;
66966;SDS011;53900;51.468;-2.586;2023-05-07T10:11:24;9.18;;;4.07;;
66966;SDS011;53900;51.468;-2.586;2023-05-07T10:13:49;13.35;;;3.70;;
66966;SDS011;53900;51.468;-2.586;2023-05-07T10:16:14;9.93;;;3.33;;
66966;SDS011;53900;51.468;-2.586;2023-05-07T10:18:40;9.93;;;2.90;;
66966;SDS011;53900;51.468;-2.586;2023-05-07T10:21:14;10.18;;;3.33;;
66966;SDS011;53900;51.468;-2.586;2023-05-07T10:23:40;6.72;;;2.30;;
66966;SDS011;53900;51.468;-2.586;2023-05-07T10:26:06;7.03;;;2.08;;
66966;SDS011;53900;51.468;-2.586;2023-05-07T10:28:34;5.00;;;1.67;;
66966;SDS011;53900;51.468;-2.586;2023-05-07T10:33:46;4.75;;;1.73;;
66966;SDS011;53900;51.468;-2.586;2023-05-07T10:36:12;7.07;;;1.92;;
66966;SDS011;53900;51.468;-2.586;2023-05-07T10:38:37;6.25;;;2.10;;
66966;SDS011;53900;51.468;-2.586;2023-05-07T10:41:04;6.20;;;2.05;;
66966;SDS011;53900;51.468;-2.586;2023-05-07T10:46:15;10.80;;;3.53;;
66966;SDS011;53900;51.468;-2.586;2023-05-07T10:51:25;7.53;;;3.45;;
66966;SDS011;53900;51.468;-2.586;2023-05-07T10:56:34;8.18;;;2.42;;
66966;SDS011;53900;51.468;-2.586;2023-05-07T10:59:30;7.10;;;2.67;;
66966;SDS011;53900;51.468;-2.586;2023-05-07T11:04:20;7.55;;;2.05;;
66966;SDS011;53900;51.468;-2.586;2023-05-07T11:07:10;5.00;;;2.45;;
66966;SDS011;53900;51.468;-2.586;2023-05-07T11:12:32;6.55;;;2.35;;
66966;SDS011;53900;51.468;-2.586;2023-05-07T11:15:06;6.93;;;3.03;;
66966;SDS011;53900;51.468;-2.586;2023-05-07T11:17:32;5.25;;;2.78;;
66966;SDS011;53900;51.468;-2.586;2023-05-07T11:19:59;5.72;;;2.55;;
66966;SDS011;53900;51.468;-2.586;2023-05-07T11:22:35;6.82;;;2.70;;
66966;SDS011;53900;51.468;-2.586;2023-05-07T11:25:05;4.10;;;2.53;;
66966;SDS011;53900;51.468;-2.586;2023-05-07T11:27:31;7.22;;;2.67;;
66966;SDS011;53900;51.468;-2.586;2023-05-07T11:29:56;5.15;;;2.40;;
66966;SDS011;53900;51.468;-2.586;2023-05-07T11:32:26;3.58;;;2.40;;
66966;SDS011;53900;51.468;-2.586;2023-05-07T11:34:51;7.57;;;3.05;;
66966;SDS011;53900;51.468;-2.586;2023-05-07T11:37:17;4.40;;;2.42;;
66966;SDS011;53900;51.468;-2.586;2023-05-07T11:39:42;3.67;;;2.40;;
66966;SDS011;53900;51.468;-2.586;2023-05-07T11:42:24;5.63;;;2.95;;
66966;SDS011;53900;51.468;-2.586;2023-05-07T11:44:49;9.45;;;3.13;;
66966;SDS011;53900;51.468;-2.586;2023-05-07T11:47:18;8.32;;;3.45;;
66966;SDS011;53900;51.468;-2.586;2023-05-07T11:49:45;6.17;;;2.80;;
66966;SDS011;53900;51.468;-2.586;2023-05-07T11:52:11;13.60;;;3.40;;
66966;SDS011;53900;51.468;-2.586;2023-05-07T11:54:37;9.13;;;3.78;;
66966;SDS011;53900;51.468;-2.586;2023-05-07T11:57:03;6.63;;;3.53;;
66966;SDS011;53900;51.468;-2.586;2023-05-07T11:59:28;6.32;;;3.42;;
66966;SDS011;53900;51.468;-2.586;2023-05-07T12:01:56;5.10;;;3.23;;
66966;SDS011;53900;51.468;-2.586;2023-05-07T12:04:22;14.70;;;4.13;;
66966;SDS011;53900;51.468;-2.586;2023-05-07T12:06:47;8.85;;;4.22;;
66966;SDS011;53900;51.468;-2.586;2023-05-07T12:09:13;8.05;;;4.32;;
66966;SDS011;53900;51.468;-2.586;2023-05-07T12:11:38;9.82;;;4.60;;
66966;SDS011;53900;51.468;-2.586;2023-05-07T12:14:04;9.73;;;5.20;;
66966;SDS011;53900;51.468;-2.586;2023-05-07T12:16:30;11.98;;;5.47;;
66966;SDS011;53900;51.468;-2.586;2023-05-07T12:18:55;13.35;;;5.72;;
66966;SDS011;53900;51.468;-2.586;2023-05-07T12:21:23;10.63;;;5.20;;
66966;SDS011;53900;51.468;-2.586;2023-05-07T12:23:50;10.05;;;5.20;;
66966;SDS011;53900;51.468;-2.586;2023-05-07T12:26:15;13.90;;;5.30;;
66966;SDS011;53900;51.468;-2.586;2023-05-07T12:28:40;10.35;;;5.43;;
66966;SDS011;53900;51.468;-2.586;2023-05-07T12:31:06;8.88;;;5.47;;
66966;SDS011;53900;51.468;-2.586;2023-05-07T12:33:31;12.15;;;5.53;;
66966;SDS011;53900;51.468;-2.586;2023-05-07T12:35:57;10.15;;;5.80;;
66966;SDS011;53900;51.468;-2.586;2023-05-07T12:38:23;12.20;;;6.22;;
66966;SDS011;53900;51.468;-2.586;2023-05-07T12:40:49;10.35;;;6.05;;
66966;SDS011;53900;51.468;-2.586;2023-05-07T12:43:21;12.52;;;5.90;;
66966;SDS011;53900;51.468;-2.586;2023-05-07T12:45:47;11.18;;;5.78;;
66966;SDS011;53900;51.468;-2.586;2023-05-07T12:48:13;10.27;;;5.22;;
66966;SDS011;53900;51.468;-2.586;2023-05-07T12:50:39;11.65;;;4.88;;
66966;SDS011;53900;51.468;-2.586;2023-05-07T12:53:04;11.65;;;4.43;;
66966;SDS011;53900;51.468;-2.586;2023-05-07T12:55:31;7.50;;;3.97;;
66966;SDS011;53900;51.468;-2.586;2023-05-07T12:57:56;11.52;;;3.90;;
66966;SDS011;53900;51.468;-2.586;2023-05-07T13:00:35;9.18;;;3.85;;
66966;SDS011;53900;51.468;-2.586;2023-05-07T13:03:00;8.95;;;3.17;;
66966;SDS011;53900;51.468;-2.586;2023-05-07T13:05:26;8.05;;;3.15;;
66966;SDS011;53900;51.468;-2.586;2023-05-07T13:07:55;8.93;;;3.40;;
66966;SDS011;53900;51.468;-2.586;2023-05-07T13:10:21;7.82;;;3.08;;
66966;SDS011;53900;51.468;-2.586;2023-05-07T13:12:46;7.40;;;2.90;;
66966;SDS011;53900;51.468;-2.586;2023-05-07T13:15:12;8.98;;;3.10;;
66966;SDS011;53900;51.468;-2.586;2023-05-07T13:17:37;8.60;;;2.75;;
66966;SDS011;53900;51.468;-2.586;2023-05-07T13:20:02;5.30;;;2.40;;
66966;SDS011;53900;51.468;-2.586;2023-05-07T13:22:28;6.90;;;2.60;;
66966;SDS011;53900;51.468;-2.586;2023-05-07T13:24:53;6.32;;;2.38;;
66966;SDS011;53900;51.468;-2.586;2023-05-07T13:27:18;8.90;;;2.45;;
66966;SDS011;53900;51.468;-2.586;2023-05-07T13:29:44;5.15;;;2.00;;
66966;SDS011;53900;51.468;-2.586;2023-05-07T13:32:09;8.57;;;2.03;;
66966;SDS011;53900;51.468;-2.586;2023-05-07T13:34:35;5.05;;;1.95;;
66966;SDS011;53900;51.468;-2.586;2023-05-07T13:37:00;10.10;;;2.05;;
66966;SDS011;53900;51.468;-2.586;2023-05-07T13:39:25;7.82;;;1.88;;
66966;SDS011;53900;51.468;-2.586;2023-05-07T13:41:51;6.35;;;1.75;;
66966;SDS011;53900;51.468;-2.586;2023-05-07T13:44:16;6.53;;;1.80;;
66966;SDS011;53900;51.468;-2.586;2023-05-07T13:46:41;7.22;;;2.05;;
66966;SDS011;53900;51.468;-2.586;2023-05-07T13:49:06;6.90;;;1.67;;
66966;SDS011;53900;51.468;-2.586;2023-05-07T13:51:32;8.52;;;1.80;;
66966;SDS011;53900;51.468;-2.586;2023-05-07T13:53:57;4.95;;;1.60;;
66966;SDS011;53900;51.468;-2.586;2023-05-07T13:56:23;4.75;;;1.55;;
66966;SDS011;53900;51.468;-2.586;2023-05-07T13:58:48;6.25;;;1.58;;
66966;SDS011;53900;51.468;-2.586;2023-05-07T14:01:13;6.40;;;1.92;;
66966;SDS011;53900;51.468;-2.586;2023-05-07T14:03:39;5.68;;;1.70;;
66966;SDS011;53900;51.468;-2.586;2023-05-07T14:06:05;5.78;;;1.33;;
66966;SDS011;53900;51.468;-2.586;2023-05-07T14:08:30;8.50;;;2.30;;
66966;SDS011;53900;51.468;-2.586;2023-05-07T14:10:55;4.75;;;1.42;;
66966;SDS011;53900;51.468;-2.586;2023-05-07T14:13:21;4.10;;;1.50;;
66966;SDS011;53900;51.468;-2.586;2023-05-07T14:15:46;6.07;;;1.70;;
66966;SDS011;53900;51.468;-2.586;2023-05-07T14:18:13;7.20;;;1.80;;
66966;SDS011;53900;51.468;-2.586;2023-05-07T14:20:38;4.07;;;1.63;;
66966;SDS011;53900;51.468;-2.586;2023-05-07T14:23:04;4.72;;;1.73;;
66966;SDS011;53900;51.468;-2.586;2023-05-07T14:25:29;6.70;;;1.85;;
66966;SDS011;53900;51.468;-2.586;2023-05-07T14:27:54;5.30;;;1.77;;
66966;SDS011;53900;51.468;-2.586;2023-05-07T14:30:19;6.97;;;2.15;;
66966;SDS011;53900;51.468;-2.586;2023-05-07T14:32:45;6.40;;;1.50;;
66966;SDS011;53900;51.468;-2.586;2023-05-07T14:35:10;6.43;;;1.58;;
66966;SDS011;53900;51.468;-2.586;2023-05-07T14:37:35;4.43;;;1.50;;
66966;SDS011;53900;51.468;-2.586;2023-05-07T14:40:00;6.68;;;1.95;;
66966;SDS011;53900;51.468;-2.586;2023-05-07T14:42:25;4.00;;;1.27;;
66966;SDS011;53900;51.468;-2.586;2023-05-07T14:44:51;8.13;;;1.42;;
66966;SDS011;53900;51.468;-2.586;2023-05-07T14:47:17;5.30;;;1.50;;
66966;SDS011;53900;51.468;-2.586;2023-05-07T14:49:43;5.55;;;1.50;;
66966;SDS011;53900;51.468;-2.586;2023-05-07T14:52:08;6.18;;;1.70;;
66966;SDS011;53900;51.468;-2.586;2023-05-07T14:54:35;5.63;;;1.65;;
66966;SDS011;53900;51.468;-2.586;2023-05-07T14:57:00;4.82;;;1.30;;
66966;SDS011;53900;51.468;-2.586;2023-05-07T14:59:26;5.65;;;1.30;;
66966;SDS011;53900;51.468;-2.586;2023-05-07T15:01:51;3.58;;;1.20;;
66966;SDS011;53900;51.468;-2.586;2023-05-07T15:04:16;3.75;;;1.40;;
66966;SDS011;53900;51.468;-2.586;2023-05-07T15:06:41;3.35;;;1.33;;
66966;SDS011;53900;51.468;-2.586;2023-05-07T15:09:07;3.83;;;1.42;;
66966;SDS011;53900;51.468;-2.586;2023-05-07T15:11:33;3.05;;;1.10;;
66966;SDS011;53900;51.468;-2.586;2023-05-07T15:13:59;4.05;;;1.35;;
66966;SDS011;53900;51.468;-2.586;2023-05-07T15:16:24;3.72;;;1.52;;
66966;SDS011;53900;51.468;-2.586;2023-05-07T15:18:49;6.10;;;1.48;;
66966;SDS011;53900;51.468;-2.586;2023-05-07T15:21:14;4.90;;;1.42;;
66966;SDS011;53900;51.468;-2.586;2023-05-07T15:23:40;7.93;;;1.40;;
66966;SDS011;53900;51.468;-2.586;2023-05-07T15:26:06;2.88;;;1.33;;
66966;SDS011;53900;51.468;-2.586;2023-05-07T15:28:32;6.20;;;2.00;;
66966;SDS011;53900;51.468;-2.586;2023-05-07T15:30:57;7.47;;;1.55;;
66966;SDS011;53900;51.468;-2.586;2023-05-07T15:33:23;3.40;;;1.10;;
66966;SDS011;53900;51.468;-2.586;2023-05-07T15:35:48;3.70;;;1.17;;
66966;SDS011;53900;51.468;-2.586;2023-05-07T15:38:14;4.95;;;1.20;;
66966;SDS011;53900;51.468;-2.586;2023-05-07T15:40:39;4.32;;;1.20;;
66966;SDS011;53900;51.468;-2.586;2023-05-07T15:43:07;3.20;;;1.15;;
66966;SDS011;53900;51.468;-2.586;2023-05-07T15:45:32;2.45;;;1.20;;
66966;SDS011;53900;51.468;-2.586;2023-05-07T15:47:58;4.05;;;1.00;;
66966;SDS011;53900;51.468;-2.586;2023-05-07T15:50:23;1.92;;;1.33;;
66966;SDS011;53900;51.468;-2.586;2023-05-07T15:52:48;4.78;;;1.42;;
66966;SDS011;53900;51.468;-2.586;2023-05-07T15:55:14;3.03;;;1.00;;
66966;SDS011;53900;51.468;-2.586;2023-05-07T15:57:39;2.17;;;1.08;;
66966;SDS011;53900;51.468;-2.586;2023-05-07T16:00:05;2.97;;;1.10;;
66966;SDS011;53900;51.468;-2.586;2023-05-07T16:02:33;1.45;;;0.80;;
66966;SDS011;53900;51.468;-2.586;2023-05-07T16:04:58;1.48;;;0.90;;
66966;SDS011;53900;51.468;-2.586;2023-05-07T16:07:23;0.77;;;0.70;;
66966;SDS011;53900;51.468;-2.586;2023-05-07T16:09:48;1.55;;;0.90;;
66966;SDS011;53900;51.468;-2.586;2023-05-07T16:12:14;2.42;;;1.00;;
66966;SDS011;53900;51.468;-2.586;2023-05-07T16:14:39;3.00;;;1.20;;
66966;SDS011;53900;51.468;-2.586;2023-05-07T16:17:05;2.05;;;0.88;;
66966;SDS011;53900;51.468;-2.586;2023-05-07T16:19:30;3.70;;;1.10;;
66966;SDS011;53900;51.468;-2.586;2023-05-07T16:21:55;2.60;;;1.30;;
66966;SDS011;53900;51.468;-2.586;2023-05-07T16:24:21;3.17;;;1.00;;
66966;SDS011;53900;51.468;-2.586;2023-05-07T16:26:47;4.68;;;1.30;;
66966;SDS011;53900;51.468;-2.586;2023-05-07T16:29:12;6.05;;;1.40;;
66966;SDS011;53900;51.468;-2.586;2023-05-07T16:31:37;2.75;;;1.13;;
66966;SDS011;53900;51.468;-2.586;2023-05-07T16:34:03;2.97;;;1.20;;
66966;SDS011;53900;51.468;-2.586;2023-05-07T16:36:28;3.90;;;1.30;;
66966;SDS011;53900;51.468;-2.586;2023-05-07T16:38:54;5.10;;;1.35;;
66966;SDS011;53900;51.468;-2.586;2023-05-07T16:41:19;2.97;;;1.17;;
66966;SDS011;53900;51.468;-2.586;2023-05-07T16:43:45;2.55;;;1.10;;
66966;SDS011;53900;51.468;-2.586;2023-05-07T16:46:10;5.10;;;1.20;;
66966;SDS011;53900;51.468;-2.586;2023-05-07T16:48:36;3.05;;;1.38;;
66966;SDS011;53900;51.468;-2.586;2023-05-07T16:51:01;5.10;;;1.00;;
66966;SDS011;53900;51.468;-2.586;2023-05-07T16:53:26;4.97;;;1.20;;
66966;SDS011;53900;51.468;-2.586;2023-05-07T16:55:51;5.15;;;1.48;;
66966;SDS011;53900;51.468;-2.586;2023-05-07T16:58:20;4.32;;;1.40;;
66966;SDS011;53900;51.468;-2.586;2023-05-07T17:00:46;5.00;;;1.35;;
66966;SDS011;53900;51.468;-2.586;2023-05-07T17:03:11;5.07;;;1.40;;
66966;SDS011;53900;51.468;-2.586;2023-05-07T17:05:37;3.13;;;1.42;;
66966;SDS011;53900;51.468;-2.586;2023-05-07T17:08:02;8.23;;;1.50;;
66966;SDS011;53900;51.468;-2.586;2023-05-07T17:10:28;8.85;;;1.52;;
66966;SDS011;53900;51.468;-2.586;2023-05-07T17:12:53;3.88;;;1.17;;
66966;SDS011;53900;51.468;-2.586;2023-05-07T17:15:18;4.60;;;1.25;;
66966;SDS011;53900;51.468;-2.586;2023-05-07T17:17:43;3.87;;;1.50;;
66966;SDS011;53900;51.468;-2.586;2023-05-07T17:20:09;4.85;;;1.40;;
66966;SDS011;53900;51.468;-2.586;2023-05-07T17:22:34;5.72;;;1.40;;
66966;SDS011;53900;51.468;-2.586;2023-05-07T17:24:59;3.92;;;1.13;;
66966;SDS011;53900;51.468;-2.586;2023-05-07T17:27:27;4.55;;;1.42;;
66966;SDS011;53900;51.468;-2.586;2023-05-07T17:29:53;4.95;;;1.33;;
66966;SDS011;53900;51.468;-2.586;2023-05-07T17:32:18;4.95;;;1.48;;
66966;SDS011;53900;51.468;-2.586;2023-05-07T17:34:43;5.18;;;1.45;;
66966;SDS011;53900;51.468;-2.586;2023-05-07T17:37:08;5.50;;;1.60;;
66966;SDS011;53900;51.468;-2.586;2023-05-07T17:39:34;3.92;;;1.20;;
66966;SDS011;53900;51.468;-2.586;2023-05-07T17:41:59;5.68;;;1.40;;
66966;SDS011;53900;51.468;-2.586;2023-05-07T17:44:24;5.90;;;2.00;;
66966;SDS011;53900;51.468;-2.586;2023-05-07T17:46:50;4.35;;;2.13;;
66966;SDS011;53900;51.468;-2.586;2023-05-07T17:49:15;3.92;;;1.30;;
66966;SDS011;53900;51.468;-2.586;2023-05-07T17:51:40;3.75;;;1.33;;
66966;SDS011;53900;51.468;-2.586;2023-05-07T17:54:06;3.72;;;1.52;;
66966;SDS011;53900;51.468;-2.586;2023-05-07T17:56:31;3.22;;;1.30;;
66966;SDS011;53900;51.468;-2.586;2023-05-07T17:58:57;3.22;;;1.25;;
66966;SDS011;53900;51.468;-2.586;2023-05-07T18:01:51;3.92;;;1.25;;
66966;SDS011;53900;51.468;-2.586;2023-05-07T18:04:15;5.50;;;1.25;;
66966;SDS011;53900;51.468;-2.586;2023-05-07T18:06:43;4.13;;;1.13;;
66966;SDS011;53900;51.468;-2.586;2023-05-07T18:09:09;5.28;;;1.42;;
66966;SDS011;53900;51.468;-2.586;2023-05-07T18:11:40;2.58;;;1.20;;
66966;SDS011;53900;51.468;-2.586;2023-05-07T18:14:05;4.80;;;1.20;;
66966;SDS011;53900;51.468;-2.586;2023-05-07T18:16:34;5.22;;;1.42;;
66966;SDS011;53900;51.468;-2.586;2023-05-07T18:19:00;4.63;;;1.20;;
66966;SDS011;53900;51.468;-2.586;2023-05-07T18:21:33;3.72;;;1.10;;
66966;SDS011;53900;51.468;-2.586;2023-05-07T18:23:59;3.15;;;1.13;;
66966;SDS011;53900;51.468;-2.586;2023-05-07T18:26:29;4.43;;;1.42;;
66966;SDS011;53900;51.468;-2.586;2023-05-07T18:29:10;4.22;;;1.20;;
66966;SDS011;53900;51.468;-2.586;2023-05-07T18:31:37;4.15;;;1.27;;
66966;SDS011;53900;51.468;-2.586;2023-05-07T18:34:12;3.00;;;1.27;;
66966;SDS011;53900;51.468;-2.586;2023-05-07T18:36:43;2.50;;;1.08;;
66966;SDS011;53900;51.468;-2.586;2023-05-07T18:39:08;3.72;;;1.30;;
66966;SDS011;53900;51.468;-2.586;2023-05-07T18:41:36;4.15;;;1.20;;
66966;SDS011;53900;51.468;-2.586;2023-05-07T18:44:01;3.00;;;1.35;;
66966;SDS011;53900;51.468;-2.586;2023-05-07T18:46:30;4.13;;;1.50;;
66966;SDS011;53900;51.468;-2.586;2023-05-07T18:48:56;4.15;;;1.20;;
66966;SDS011;53900;51.468;-2.586;2023-05-07T18:51:23;2.22;;;1.08;;
66966;SDS011;53900;51.468;-2.586;2023-05-07T18:53:49;5.60;;;1.35;;
66966;SDS011;53900;51.468;-2.586;2023-05-07T18:56:14;3.65;;;2.00;;
66966;SDS011;53900;51.468;-2.586;2023-05-07T18:58:40;4.82;;;1.45;;
66966;SDS011;53900;51.468;-2.586;2023-05-07T19:01:08;5.38;;;1.23;;
66966;SDS011;53900;51.468;-2.586;2023-05-07T19:03:38;4.97;;;1.35;;
66966;SDS011;53900;51.468;-2.586;2023-05-07T19:06:03;4.43;;;1.13;;
66966;SDS011;53900;51.468;-2.586;2023-05-07T19:08:31;5.00;;;1.50;;